createdAt,value
2023-07-25T00:00:52.598Z,0.375
2023-07-25T00:02:52.795Z,0.5
2023-07-25T00:04:52.890Z,0.312
2023-07-25T00:06:52.597Z,0.437
2023-07-25T00:08:52.630Z,0.562
2023-07-25T00:10:54.034Z,0.5
2023-07-25T00:12:52.608Z,0.5
2023-07-25T00:14:52.674Z,0.5
2023-07-25T00:16:52.955Z,0.375
2023-07-25T00:18:52.637Z,0.5
2023-07-25T00:20:52.832Z,0.5
2023-07-25T00:22:52.651Z,0.5
2023-07-25T00:24:52.925Z,0.562
2023-07-25T00:26:52.811Z,0.625
2023-07-25T00:28:52.640Z,0.625
2023-07-25T00:30:52.635Z,0.625
2023-07-25T00:32:52.970Z,0.687
2023-07-25T00:34:52.766Z,0.687
2023-07-25T00:36:52.829Z,0.75
2023-07-25T00:38:52.636Z,0.812
2023-07-25T00:40:52.642Z,0.75
2023-07-25T00:42:52.628Z,0.875
2023-07-25T00:44:52.654Z,1
2023-07-25T00:46:52.640Z,1.125
2023-07-25T00:48:52.643Z,1.25
2023-07-25T00:50:52.670Z,1.375
2023-07-25T00:52:52.917Z,1.437
2023-07-25T00:54:52.666Z,1.5
2023-07-25T00:56:52.702Z,1.375
2023-07-25T00:58:52.650Z,1.5
2023-07-25T01:00:52.667Z,1.375
2023-07-25T01:02:53.192Z,1.312
2023-07-25T01:04:52.682Z,1.25
2023-07-25T01:06:52.776Z,1.25
2023-07-25T01:08:52.940Z,1.187
2023-07-25T01:10:52.692Z,1.187
2023-07-25T01:12:52.734Z,1.125
2023-07-25T01:14:52.726Z,1
2023-07-25T01:16:52.671Z,0.875
2023-07-25T01:18:52.696Z,0.875
2023-07-25T01:20:52.682Z,0.687
2023-07-25T01:22:52.698Z,0.687
2023-07-25T01:24:53.165Z,0.75
2023-07-25T01:26:52.704Z,0.625
2023-07-25T01:28:52.672Z,0.625
2023-07-25T01:30:52.685Z,0.687
2023-07-25T01:32:52.860Z,0.625
2023-07-25T01:34:52.697Z,0.687
2023-07-25T01:36:52.680Z,0.562
2023-07-25T01:38:52.718Z,0.625
2023-07-25T01:40:53.032Z,0.562
2023-07-25T01:42:52.728Z,0.687
2023-07-25T01:44:52.698Z,0.625
2023-07-25T01:46:52.722Z,0.562
2023-07-25T01:48:52.710Z,0.562
2023-07-25T01:50:52.736Z,0.625
2023-07-25T01:52:52.698Z,0.562
2023-07-25T01:54:52.713Z,0.625
2023-07-25T01:56:53.248Z,0.562
2023-07-25T01:58:52.722Z,0.625
2023-07-25T02:00:53.039Z,0.625
2023-07-25T02:02:53.190Z,0.625
2023-07-25T02:04:52.726Z,0.562
2023-07-25T02:06:52.701Z,0.562
2023-07-25T02:08:52.728Z,0.625
2023-07-25T02:10:52.801Z,0.625
2023-07-25T02:12:52.829Z,0.625
2023-07-25T02:14:52.728Z,0.625
2023-07-25T02:16:52.967Z,0.687
2023-07-25T02:18:52.744Z,0.625
2023-07-25T02:20:52.741Z,0.562
2023-07-25T02:22:52.758Z,0.625
2023-07-25T02:24:53.501Z,0.562
2023-07-25T02:26:52.726Z,0.625
2023-07-25T02:28:52.909Z,0.625
2023-07-25T02:30:53.058Z,0.5
2023-07-25T02:32:53.085Z,0.562
2023-07-25T02:34:52.720Z,0.5
2023-07-25T02:36:52.881Z,0.5
2023-07-25T02:38:52.754Z,0.5
2023-07-25T02:40:52.750Z,0.5
2023-07-25T02:42:52.789Z,0.562
2023-07-25T02:44:52.897Z,0.625
2023-07-25T02:46:53.204Z,0.5
2023-07-25T02:48:52.847Z,0.562
2023-07-25T02:50:52.762Z,0.562
2023-07-25T02:52:52.774Z,0.5
2023-07-25T02:54:52.760Z,0.562
2023-07-25T02:56:52.794Z,0.562
2023-07-25T02:58:52.764Z,0.5
2023-07-25T03:00:53.198Z,0.5
2023-07-25T03:02:53.053Z,0.5
2023-07-25T03:04:52.793Z,0.562
2023-07-25T03:06:52.785Z,0.625
2023-07-25T03:08:52.884Z,0.5
2023-07-25T03:10:52.792Z,0.5
2023-07-25T03:12:52.814Z,0.562
2023-07-25T03:14:52.921Z,0.562
2023-07-25T03:16:53.224Z,0.625
2023-07-25T03:18:52.802Z,0.562
2023-07-25T03:20:52.800Z,0.625
2023-07-25T03:22:52.888Z,0.5
2023-07-25T03:24:53.421Z,0.5
2023-07-25T03:26:52.803Z,0.5
2023-07-25T03:28:52.872Z,0.5
2023-07-25T03:30:53.098Z,0.5
2023-07-25T03:32:53.298Z,0.562
2023-07-25T03:34:52.974Z,0.437
2023-07-25T03:36:52.802Z,0.5
2023-07-25T03:38:52.838Z,0.5
2023-07-25T03:40:52.827Z,0.562
2023-07-25T03:42:52.930Z,0.562
2023-07-25T03:44:52.827Z,0.5
2023-07-25T03:46:52.795Z,0.437
2023-07-25T03:48:53.006Z,0.5
2023-07-25T03:50:53.271Z,0.437
2023-07-25T03:52:52.831Z,0.5
2023-07-25T03:54:52.820Z,0.437
2023-07-25T03:56:52.827Z,0.5
2023-07-25T03:58:52.828Z,0.5
2023-07-25T04:00:52.817Z,0.5
2023-07-25T04:03:16.329Z,0.437
2023-07-25T04:04:53.637Z,0.5
2023-07-25T04:06:53.094Z,0.5
2023-07-25T04:08:52.864Z,0.562
2023-07-25T04:10:52.850Z,0.437
2023-07-25T04:12:52.840Z,0.5
2023-07-25T04:14:52.872Z,0.5
2023-07-25T04:16:52.868Z,0.5
2023-07-25T04:18:52.886Z,0.5
2023-07-25T04:20:54.010Z,0.5
2023-07-25T04:22:52.869Z,0.437
2023-07-25T04:24:53.251Z,0.562
2023-07-25T04:26:53.009Z,0.5
2023-07-25T04:28:52.862Z,0.5
2023-07-25T04:30:52.879Z,0.5
2023-07-25T04:32:53.258Z,0.5
2023-07-25T04:34:52.968Z,0.562
2023-07-25T04:36:53.121Z,0.562
2023-07-25T04:38:52.876Z,0.5
2023-07-25T04:40:52.881Z,0.5
2023-07-25T04:42:52.903Z,0.5
2023-07-25T04:44:52.863Z,0.5
2023-07-25T04:48:52.884Z,-4.75
2023-07-25T04:50:52.884Z,-4.125
2023-07-25T04:52:53.129Z,-3.063
2023-07-25T04:54:52.877Z,-1.25
2023-07-25T04:56:52.879Z,-0.812
2023-07-25T04:58:52.912Z,-0.562
2023-07-25T05:00:53.054Z,-0.437
2023-07-25T05:02:53.383Z,-0.437
2023-07-25T05:04:52.889Z,-0.437
2023-07-25T05:06:52.898Z,-0.375
2023-07-25T05:08:53.027Z,-0.375
2023-07-25T05:10:52.954Z,-0.312
2023-07-25T05:12:52.931Z,-0.312
2023-07-25T05:14:53.019Z,-0.25
2023-07-25T05:16:52.920Z,-0.312
2023-07-25T05:18:52.913Z,-0.312
2023-07-25T05:20:52.922Z,-0.375
2023-07-25T05:22:52.925Z,-0.25
2023-07-25T05:24:53.448Z,-0.312
2023-07-25T05:26:52.924Z,-0.25
2023-07-25T05:28:52.915Z,-0.312
2023-07-25T05:30:52.925Z,-0.25
2023-07-25T05:32:53.167Z,-0.25
2023-07-25T05:34:52.975Z,-0.25
2023-07-25T05:36:52.944Z,-0.187
2023-07-25T05:38:52.952Z,-0.25
2023-07-25T05:40:53.140Z,-0.25
2023-07-25T05:42:52.940Z,-0.25
2023-07-25T05:44:52.954Z,-0.187
2023-07-25T05:46:52.936Z,-0.25
2023-07-25T05:48:52.976Z,-0.312
2023-07-25T05:50:52.977Z,-0.187
2023-07-25T05:52:52.941Z,-0.25
2023-07-25T05:54:52.975Z,-0.125
2023-07-25T05:56:53.142Z,-0.25
2023-07-25T05:58:52.933Z,-0.25
2023-07-25T06:00:53.246Z,-0.25
2023-07-25T06:02:53.283Z,-0.187
2023-07-25T06:04:52.979Z,-0.25
2023-07-25T06:06:52.964Z,-0.25
2023-07-25T06:08:52.979Z,-0.312
2023-07-25T06:10:53.028Z,-0.25
2023-07-25T06:12:53.052Z,-0.25
2023-07-25T06:14:52.987Z,-0.125
2023-07-25T06:16:53.236Z,-0.062
2023-07-25T06:18:52.982Z,-0.187
2023-07-25T06:20:53.296Z,-0.125
2023-07-25T06:22:52.982Z,-0.125
2023-07-25T06:24:53.293Z,-0.125
2023-07-25T06:26:53.102Z,-0.187
2023-07-25T06:28:53.198Z,-0.187
2023-07-25T06:30:53.355Z,-0.187
2023-07-25T06:32:56.428Z,-0.187
2023-07-25T06:34:53.012Z,-0.125
2023-07-25T06:36:52.991Z,-0.187
2023-07-25T06:38:53.013Z,-0.125
2023-07-25T06:42:53.008Z,-0.125
2023-07-25T06:44:53.237Z,-0.187
2023-07-25T06:46:53.446Z,-0.125
2023-07-25T06:48:53.011Z,-0.125
2023-07-25T06:50:53.013Z,-0.125
2023-07-25T06:52:53.156Z,-0.062
2023-07-25T06:54:53.014Z,0
2023-07-25T06:56:53.017Z,-0.187
2023-07-25T06:58:53.024Z,-0.062
2023-07-25T07:00:53.397Z,0
2023-07-25T07:02:53.554Z,-0.062
2023-07-25T07:04:53.027Z,0
2023-07-25T07:06:53.008Z,-0.062
2023-07-25T07:08:53.578Z,0
2023-07-25T07:10:53.045Z,0
2023-07-25T07:12:53.033Z,-0.062
2023-07-25T07:14:53.065Z,0
2023-07-25T07:16:53.686Z,0.062
2023-07-25T07:18:53.151Z,0.312
2023-07-25T07:20:53.071Z,0.437
2023-07-25T07:22:53.059Z,0.437
2023-07-25T07:24:53.508Z,0.312
2023-07-25T07:26:53.051Z,0.187
2023-07-25T07:28:53.056Z,0
2023-07-25T07:30:53.340Z,0.187
2023-07-25T07:32:53.592Z,0.5
2023-07-25T07:34:53.071Z,0.562
2023-07-25T07:36:53.048Z,0.687
2023-07-25T07:38:53.065Z,0.562
2023-07-25T07:40:53.082Z,0.562
2023-07-25T07:42:53.404Z,0.687
2023-07-25T07:44:53.102Z,0.75
2023-07-25T07:46:53.109Z,0.5
2023-07-25T07:48:53.229Z,0.625
2023-07-25T07:50:53.078Z,0.625
2023-07-25T07:54:53.095Z,0.75
2023-07-25T07:56:53.082Z,0.75
2023-07-25T07:58:56.888Z,0.75
2023-07-25T08:00:53.122Z,0.75
2023-07-25T08:02:53.844Z,2.875
2023-07-25T08:04:53.614Z,2
2023-07-25T08:06:53.097Z,0.562
2023-07-25T08:08:53.288Z,0.687
2023-07-25T08:10:53.127Z,0.687
2023-07-25T08:12:53.125Z,0.437
2023-07-25T08:14:53.130Z,0.25
2023-07-25T08:16:53.364Z,0.25
2023-07-25T08:18:53.119Z,0.562
2023-07-25T08:20:53.233Z,0.812
2023-07-25T08:22:53.158Z,0.687
2023-07-25T08:24:53.534Z,0.875
2023-07-25T08:26:53.157Z,0.937
2023-07-25T08:28:53.251Z,0.937
2023-07-25T08:30:53.167Z,1
2023-07-25T08:32:53.511Z,1.062
2023-07-25T08:34:53.139Z,0.937
2023-07-25T08:36:53.364Z,1.062
2023-07-25T08:38:53.140Z,0.875
2023-07-25T08:40:53.152Z,0.5
2023-07-25T08:42:53.142Z,0.5
2023-07-25T08:44:53.261Z,0.375
2023-07-25T08:46:53.160Z,0.187
2023-07-25T08:48:53.180Z,0.5
2023-07-25T08:50:53.191Z,0.812
2023-07-25T08:52:53.421Z,0.812
2023-07-25T08:54:53.195Z,0.812
2023-07-25T08:56:53.215Z,0.75
2023-07-25T08:58:53.173Z,0.625
2023-07-25T09:02:55.210Z,0.937
2023-07-25T09:04:53.219Z,0.687
2023-07-25T09:06:53.166Z,0.437
2023-07-25T09:08:53.483Z,0.812
2023-07-25T09:10:53.177Z,1
2023-07-25T09:12:53.205Z,0.937
2023-07-25T09:14:53.201Z,0.562
2023-07-25T09:16:53.342Z,0.312
2023-07-25T09:18:53.243Z,0.75
2023-07-25T09:20:53.236Z,0.937
2023-07-25T09:22:53.281Z,0.937
2023-07-25T09:24:53.825Z,1
2023-07-25T09:26:53.386Z,1.125
2023-07-25T09:28:53.229Z,1.187
2023-07-25T09:30:53.273Z,1
2023-07-25T09:32:53.586Z,0.75
2023-07-25T09:34:53.254Z,0.437
2023-07-25T09:38:53.363Z,0.25
2023-07-25T09:40:53.623Z,0.312
2023-07-25T09:42:53.238Z,0.312
2023-07-25T09:44:53.302Z,0.375
2023-07-25T09:46:53.337Z,0.187
2023-07-25T09:48:53.856Z,0.125
2023-07-25T09:50:53.346Z,0.125
2023-07-25T09:52:53.203Z,0.062
2023-07-25T09:54:53.246Z,0
2023-07-25T09:56:53.507Z,0
2023-07-25T09:59:08.240Z,0.062
2023-07-25T10:00:53.359Z,0.187
2023-07-25T10:02:53.975Z,0.187
2023-07-25T10:04:54.011Z,0.187
2023-07-25T10:06:53.286Z,0.125
2023-07-25T10:10:53.291Z,0.25
2023-07-25T10:12:53.523Z,0.25
2023-07-25T10:14:53.287Z,0.312
2023-07-25T10:16:53.295Z,0.312
2023-07-25T10:18:53.441Z,0.25
2023-07-25T10:20:53.279Z,0.25
2023-07-25T10:22:53.426Z,0.312
2023-07-25T10:24:53.796Z,0.25
2023-07-25T10:26:53.270Z,0.25
2023-07-25T10:28:53.448Z,0.25
2023-07-25T10:30:53.236Z,0.125
2023-07-25T10:32:53.751Z,0.312
2023-07-25T10:34:53.537Z,0.437
2023-07-25T10:36:53.383Z,1
2023-07-25T10:38:53.559Z,1.312
2023-07-25T10:40:53.336Z,1.312
2023-07-25T10:43:08.262Z,1.312
2023-07-25T10:44:53.727Z,0.937
2023-07-25T10:46:53.641Z,0.75
2023-07-25T10:48:53.635Z,0.562
2023-07-25T10:50:53.439Z,0.687
2023-07-25T10:54:53.315Z,1.187
2023-07-25T10:56:53.313Z,1.187
2023-07-25T10:58:53.312Z,0.75
2023-07-25T11:00:53.657Z,0.375
2023-07-25T11:02:53.363Z,0.312
2023-07-25T11:04:53.314Z,0.187
2023-07-25T11:06:53.318Z,0.187
2023-07-25T11:08:53.312Z,0.125
2023-07-25T11:10:53.313Z,0.25
2023-07-25T11:12:53.338Z,0.187
2023-07-25T11:14:53.368Z,0.187
2023-07-25T11:16:54.015Z,0.125
2023-07-25T11:18:53.739Z,0.25
2023-07-25T11:20:53.587Z,0.187
2023-07-25T11:22:53.338Z,0.187
2023-07-25T11:24:53.849Z,0.187
2023-07-25T11:26:53.491Z,0.125
2023-07-25T11:28:53.343Z,0.187
2023-07-25T11:30:53.710Z,0.562
2023-07-25T11:32:53.818Z,1.125
2023-07-25T11:34:53.366Z,1.312
2023-07-25T11:36:53.339Z,1.437
2023-07-25T11:38:53.338Z,1.5
2023-07-25T11:40:53.368Z,1.5
2023-07-25T11:42:53.356Z,1.375
2023-07-25T11:44:53.410Z,1.375
2023-07-25T11:46:53.350Z,1.437
2023-07-25T11:48:53.450Z,1.5
2023-07-25T11:52:53.378Z,0.625
2023-07-25T11:54:53.383Z,0.5
2023-07-25T11:56:53.405Z,0.312
2023-07-25T11:58:53.409Z,0.375
2023-07-25T12:00:53.514Z,0.437
2023-07-25T12:02:54.042Z,0.937
2023-07-25T12:04:53.573Z,1.375
2023-07-25T12:06:53.400Z,1.5
2023-07-25T12:08:53.394Z,1.5
2023-07-25T12:10:53.433Z,1.437
2023-07-25T12:12:53.432Z,1.437
2023-07-25T12:14:53.390Z,1.375
2023-07-25T12:16:53.799Z,1.187
2023-07-25T12:18:53.421Z,0.875
2023-07-25T12:21:00.315Z,0.5
2023-07-25T12:22:53.419Z,0.375
2023-07-25T12:24:53.685Z,0.187
2023-07-25T12:26:53.650Z,0.125
2023-07-25T12:28:53.389Z,0.125
2023-07-25T12:30:53.424Z,0.125
2023-07-25T12:32:54.002Z,0.062
2023-07-25T12:34:53.415Z,0
2023-07-25T12:36:53.774Z,0
2023-07-25T12:38:53.584Z,-0.062
2023-07-25T12:40:53.410Z,-0.062
2023-07-25T12:42:53.441Z,-0.062
2023-07-25T12:44:53.439Z,-0.062
2023-07-25T12:46:53.711Z,-0.062
2023-07-25T12:48:53.506Z,0
2023-07-25T12:50:53.432Z,0.062
2023-07-25T12:52:53.603Z,0.125
2023-07-25T12:56:53.561Z,0.187
2023-07-25T12:58:53.580Z,0.312
2023-07-25T13:00:53.620Z,0.375
2023-07-25T13:02:54.069Z,0.5
2023-07-25T13:06:53.996Z,0.75
2023-07-25T13:08:53.542Z,0.375
2023-07-25T13:10:53.601Z,0.25
2023-07-25T13:12:53.493Z,0.187
2023-07-25T13:14:53.618Z,0.187
2023-07-25T13:16:53.606Z,0.25
2023-07-25T13:18:53.744Z,0.25
2023-07-25T13:20:53.630Z,0.25
2023-07-25T13:22:53.478Z,0.25
2023-07-25T13:24:53.990Z,0.25
2023-07-25T13:26:53.482Z,0.375
2023-07-25T13:28:53.505Z,0.312
2023-07-25T13:30:53.593Z,0.312
2023-07-25T13:32:53.983Z,0.312
2023-07-25T13:34:53.481Z,0.437
2023-07-25T13:36:53.562Z,0.562
2023-07-25T13:38:53.496Z,0.562
2023-07-25T13:40:53.794Z,0.75
2023-07-25T13:44:53.719Z,0.687
2023-07-25T13:46:53.916Z,0.5
2023-07-25T13:48:53.766Z,0.437
2023-07-25T13:50:55.976Z,0.375
2023-07-25T13:52:53.512Z,0.312
2023-07-25T13:54:53.528Z,0.375
2023-07-25T13:56:53.688Z,0.312
2023-07-25T13:58:53.504Z,0.375
2023-07-25T14:00:53.545Z,0.562
2023-07-25T14:02:54.057Z,0.812
2023-07-25T14:04:53.729Z,0.937
2023-07-25T14:06:53.521Z,1
2023-07-25T14:08:57.737Z,0.875
2023-07-25T14:10:53.549Z,0.75
2023-07-25T14:12:53.801Z,0.75
2023-07-25T14:15:02.751Z,0.687
2023-07-25T14:16:53.631Z,0.437
2023-07-25T14:18:53.724Z,0.437
2023-07-25T14:20:57.027Z,0.562
2023-07-25T14:22:53.552Z,0.75
2023-07-25T14:24:53.989Z,0.75
2023-07-25T14:26:53.545Z,0.75
2023-07-25T14:28:53.804Z,0.812
2023-07-25T14:30:53.592Z,0.75
2023-07-25T14:32:53.960Z,0.687
2023-07-25T14:34:53.737Z,0.625
2023-07-25T14:36:53.595Z,0.5
2023-07-25T14:40:54.062Z,0.5
2023-07-25T14:42:53.899Z,0.375
2023-07-25T14:46:54.238Z,0.187
2023-07-25T14:48:53.571Z,0.125
2023-07-25T14:50:53.574Z,0.25
2023-07-25T14:52:53.587Z,0.25
2023-07-25T14:54:53.621Z,0.312
2023-07-25T14:56:53.670Z,0.375
2023-07-25T14:58:53.601Z,0.5
2023-07-25T15:00:54.117Z,0.562
2023-07-25T15:02:54.293Z,0.625
2023-07-25T15:04:53.572Z,0.625
2023-07-25T15:06:53.607Z,0.687
2023-07-25T15:08:53.762Z,0.625
2023-07-25T15:10:53.636Z,0.687
2023-07-25T15:12:55.223Z,0.625
2023-07-25T15:14:53.779Z,0.562
2023-07-25T15:16:54.256Z,0.625
2023-07-25T15:18:53.605Z,0.625
2023-07-25T15:20:53.624Z,0.5
2023-07-25T15:22:53.597Z,0.5
2023-07-25T15:24:54.223Z,0.5
2023-07-25T15:26:53.828Z,0.437
2023-07-25T15:28:53.639Z,0.375
2023-07-25T15:30:58.307Z,0.312
2023-07-25T15:32:54.381Z,0.312
2023-07-25T15:36:53.738Z,0.062
2023-07-25T15:38:53.659Z,0.187
2023-07-25T15:40:53.643Z,0.187
2023-07-25T15:42:53.660Z,0.187
2023-07-25T15:44:53.662Z,0.187
2023-07-25T15:46:53.696Z,0.125
2023-07-25T15:48:54.109Z,0.25
2023-07-25T15:50:53.722Z,0.312
2023-07-25T15:52:53.737Z,0.187
2023-07-25T15:54:53.674Z,0.125
2023-07-25T15:56:53.749Z,0.062
2023-07-25T15:58:53.772Z,0.062
2023-07-25T16:00:54.179Z,0.062
2023-07-25T16:06:53.692Z,-0.062
2023-07-25T16:08:53.788Z,-0.062
2023-07-25T16:10:53.821Z,-0.062
2023-07-25T16:12:53.812Z,-0.062
2023-07-25T16:14:53.786Z,-0.062
2023-07-25T16:16:54.419Z,0
2023-07-25T16:18:54.047Z,0
2023-07-25T16:20:53.894Z,0
2023-07-25T16:22:53.755Z,0.062
2023-07-25T16:24:54.041Z,0.062
2023-07-25T16:26:53.735Z,0
2023-07-25T16:28:53.797Z,0
2023-07-25T16:31:33.578Z,0.062
2023-07-25T16:32:54.173Z,-0.062
2023-07-25T16:34:53.743Z,0.062
2023-07-25T16:36:54.258Z,0.062
2023-07-25T16:38:53.944Z,0.062
2023-07-25T16:40:53.708Z,0
2023-07-25T16:42:53.740Z,0
2023-07-25T16:44:53.708Z,0
2023-07-25T16:46:54.128Z,0
2023-07-25T16:48:53.815Z,0
2023-07-25T16:50:53.778Z,0
2023-07-25T16:52:54.070Z,0
2023-07-25T16:54:53.721Z,0
2023-07-25T16:56:53.807Z,-0.062
2023-07-25T16:58:53.768Z,0.062
2023-07-25T17:00:53.796Z,-0.062
2023-07-25T17:02:54.761Z,0
2023-07-25T17:06:53.851Z,0
2023-07-25T17:08:54.054Z,0
2023-07-25T17:10:54.032Z,-0.062
2023-07-25T17:12:54.010Z,-0.062
2023-07-25T17:14:53.850Z,-0.062
2023-07-25T17:16:53.900Z,0
2023-07-25T17:20:53.807Z,-0.125
2023-07-25T17:22:53.817Z,-0.062
2023-07-25T17:24:54.321Z,-0.125
2023-07-25T17:26:53.909Z,-0.125
2023-07-25T17:30:54.120Z,-0.062
2023-07-25T17:32:54.130Z,0
2023-07-25T17:34:54.054Z,-0.125
2023-07-25T17:36:53.934Z,-0.062
2023-07-25T17:38:54.096Z,-0.062
2023-07-25T17:40:54.396Z,-0.125
2023-07-25T17:42:53.875Z,-0.125
2023-07-25T17:44:53.883Z,-0.062
2023-07-25T17:46:53.925Z,-0.125
2023-07-25T17:50:53.970Z,-0.062
2023-07-25T17:52:54.130Z,-0.125
2023-07-25T17:54:53.997Z,-0.125
2023-07-25T17:56:54.643Z,-0.125
2023-07-25T17:58:53.918Z,-0.125
2023-07-25T18:00:54.872Z,-0.125
2023-07-25T18:02:54.553Z,-0.062
2023-07-25T18:06:53.860Z,-0.062
2023-07-25T18:08:53.877Z,0.062
2023-07-25T18:10:53.896Z,0
2023-07-25T18:12:54.768Z,0.062
2023-07-25T18:14:54.307Z,0.062
2023-07-25T18:16:54.328Z,0
2023-07-25T18:18:54.099Z,0
2023-07-25T18:22:53.924Z,0.187
2023-07-25T18:24:54.741Z,0.062
2023-07-25T18:26:53.901Z,0.25
2023-07-25T18:28:53.991Z,0.125
2023-07-25T18:30:54.005Z,0.187
2023-07-25T18:32:54.173Z,0.125
2023-07-25T18:34:54.116Z,0.25
2023-07-25T18:36:53.966Z,-0.562
2023-07-25T18:38:54.198Z,-0.812
2023-07-25T18:40:54.102Z,-0.625
2023-07-25T18:42:53.933Z,-0.312
2023-07-25T18:44:54.154Z,-0.187
2023-07-25T18:46:54.104Z,-0.187
2023-07-25T18:48:53.957Z,-0.125
2023-07-25T18:50:54.145Z,-0.125
2023-07-25T18:52:54.111Z,-0.187
2023-07-25T18:54:53.934Z,-0.187
2023-07-25T18:56:54.026Z,-0.25
2023-07-25T18:58:53.982Z,-0.125
2023-07-25T19:00:54.515Z,-0.125
2023-07-25T19:02:54.680Z,-0.187
2023-07-25T19:04:54.052Z,-0.125
2023-07-25T19:06:54.067Z,-0.187
2023-07-25T19:08:54.000Z,-0.062
2023-07-25T19:10:53.927Z,-0.187
2023-07-25T19:12:53.978Z,-0.125
2023-07-25T19:14:53.965Z,-0.125
2023-07-25T19:16:54.687Z,-0.187
2023-07-25T19:18:53.973Z,-0.187
2023-07-25T19:20:54.092Z,-0.25
2023-07-25T19:22:54.012Z,-0.187
2023-07-25T19:24:54.604Z,-0.187
2023-07-25T19:26:53.949Z,-0.187
2023-07-25T19:28:54.045Z,-0.187
2023-07-25T19:30:54.504Z,-0.187
2023-07-25T19:32:54.504Z,-0.187
2023-07-25T19:34:54.000Z,-0.187
2023-07-25T19:36:53.971Z,-0.062
2023-07-25T19:38:53.975Z,-0.062
2023-07-25T19:40:53.998Z,0
2023-07-25T19:44:54.014Z,0
2023-07-25T19:46:54.494Z,0
2023-07-25T19:48:54.422Z,0
2023-07-25T19:50:54.064Z,0.062
2023-07-25T19:52:54.257Z,0.062
2023-07-25T19:54:53.946Z,0.125
2023-07-25T19:56:54.038Z,0.187
2023-07-25T19:58:54.218Z,0.187
2023-07-25T20:00:54.241Z,0.125
2023-07-25T20:02:54.538Z,0.125
2023-07-25T20:04:54.480Z,0.187
2023-07-25T20:06:54.013Z,0.125
2023-07-25T20:08:54.037Z,0.187
2023-07-25T20:10:54.098Z,0.187
2023-07-25T20:12:54.553Z,0.187
2023-07-25T20:16:54.476Z,0.25
2023-07-25T20:18:54.130Z,0.25
2023-07-25T20:20:54.112Z,0.187
2023-07-25T20:22:54.125Z,0.25
2023-07-25T20:24:54.362Z,0.25
2023-07-25T20:26:54.042Z,0.25
2023-07-25T20:28:54.047Z,0.125
2023-07-25T20:30:54.007Z,0.187
2023-07-25T20:32:54.720Z,0.187
2023-07-25T20:34:54.159Z,0.062
2023-07-25T20:36:54.120Z,0.25
2023-07-25T20:38:54.046Z,0.187
2023-07-25T20:40:54.039Z,0.187
2023-07-25T20:42:54.043Z,0.187
2023-07-25T20:44:54.079Z,0.125
2023-07-25T20:46:54.555Z,0.25
2023-07-25T20:48:54.084Z,0.187
2023-07-25T20:50:54.090Z,0.125
2023-07-25T20:52:54.453Z,0.125
2023-07-25T20:54:54.189Z,0.125
2023-07-25T20:56:54.102Z,0.125
2023-07-25T20:58:54.084Z,0.187
2023-07-25T21:00:54.163Z,0.125
2023-07-25T21:02:54.790Z,0.187
2023-07-25T21:04:54.029Z,0.25
2023-07-25T21:06:54.076Z,0.125
2023-07-25T21:08:54.273Z,0.187
2023-07-25T21:12:54.011Z,0.187
2023-07-25T21:14:54.060Z,0.187
2023-07-25T21:16:54.017Z,0.187
2023-07-25T21:20:54.085Z,0.25
2023-07-25T21:22:54.052Z,0.187
2023-07-25T21:24:54.507Z,0.187
2023-07-25T21:26:54.045Z,0.187
2023-07-25T21:28:54.140Z,0.187
2023-07-25T21:30:54.081Z,0.25
2023-07-25T21:32:54.459Z,0.187
2023-07-25T21:34:54.123Z,0.25
2023-07-25T21:38:56.555Z,0.312
2023-07-25T21:40:54.401Z,0.187
2023-07-25T21:42:54.135Z,0.125
2023-07-25T21:44:54.200Z,0.187
2023-07-25T21:46:54.102Z,0.187
2023-07-25T21:48:54.119Z,0.25
2023-07-25T21:50:54.104Z,0.25
2023-07-25T21:52:54.442Z,0.187
2023-07-25T21:54:54.193Z,0.187
2023-07-25T21:56:54.427Z,0.187
2023-07-25T21:58:54.119Z,0.187
2023-07-25T22:00:54.083Z,0.125
2023-07-25T22:02:54.644Z,0.125
2023-07-25T22:04:54.117Z,0.125
2023-07-25T22:06:54.106Z,0.125
2023-07-25T22:08:54.116Z,0.062
2023-07-25T22:10:54.473Z,0.125
2023-07-25T22:12:54.397Z,0.062
2023-07-25T22:14:54.159Z,0.062
2023-07-25T22:16:54.161Z,0
2023-07-25T22:18:54.096Z,0
2023-07-25T22:20:54.128Z,-0.125
2023-07-25T22:22:54.119Z,-0.25
2023-07-25T22:24:54.506Z,-0.437
2023-07-25T22:26:54.161Z,-0.437
2023-07-25T22:28:54.283Z,-0.625
2023-07-25T22:30:54.126Z,-0.625
2023-07-25T22:32:54.393Z,-0.687
2023-07-25T22:34:54.206Z,-0.625
2023-07-25T22:36:54.170Z,-0.562
2023-07-25T22:38:54.183Z,-0.562
2023-07-25T22:40:54.185Z,-0.562
2023-07-25T22:42:54.288Z,-0.5
2023-07-25T22:44:54.320Z,-0.375
2023-07-25T22:46:54.444Z,-0.312
2023-07-25T22:48:54.178Z,-0.312
2023-07-25T22:50:54.269Z,-0.187
2023-07-25T22:52:54.151Z,-0.125
2023-07-25T22:54:54.143Z,-0.062
2023-07-25T22:56:54.185Z,0.062
2023-07-25T22:58:54.185Z,0.062
2023-07-25T23:00:54.609Z,0.187
2023-07-25T23:02:55.014Z,0.187
2023-07-25T23:04:54.177Z,0.312
2023-07-25T23:06:54.166Z,0.25
2023-07-25T23:08:54.175Z,0.312
2023-07-25T23:10:54.206Z,0.312
2023-07-25T23:12:54.249Z,0.312
2023-07-25T23:14:54.214Z,0.312
2023-07-25T23:16:54.422Z,0.437
2023-07-25T23:18:54.411Z,0.437
2023-07-25T23:20:54.335Z,0.375
2023-07-25T23:22:54.184Z,0.437
2023-07-25T23:24:54.460Z,0.375
2023-07-25T23:26:54.182Z,0.437
2023-07-25T23:28:54.196Z,0.437
2023-07-25T23:30:55.857Z,0.375
2023-07-25T23:32:54.681Z,0.312
2023-07-25T23:34:54.315Z,0.5
2023-07-25T23:36:54.159Z,0.312
2023-07-25T23:38:54.254Z,0.375
2023-07-25T23:40:54.198Z,0.312
2023-07-25T23:42:54.273Z,0.375
2023-07-25T23:44:54.208Z,0.25
2023-07-25T23:46:54.629Z,0.312
2023-07-25T23:48:54.549Z,0.312
2023-07-25T23:50:54.426Z,0.312
2023-07-25T23:52:54.237Z,0.312
2023-07-25T23:54:54.257Z,0.375
2023-07-25T23:56:54.258Z,0.25
2023-07-25T23:58:54.300Z,0.25
